createdAt,value
2019-03-24T10:28:01.285Z,8.30
2019-03-24T10:33:05.104Z,8.60
2019-03-24T10:38:08.393Z,9.20
2019-03-24T10:43:11.557Z,9.00
2019-03-24T10:48:14.657Z,9.00
2019-03-24T10:53:17.827Z,9.40
2019-03-24T10:58:20.991Z,9.30
2019-03-24T11:03:24.137Z,9.20
2019-03-24T11:08:27.690Z,9.10
2019-03-24T11:13:30.794Z,9.40
2019-03-24T11:18:34.276Z,9.30
2019-03-24T11:23:37.721Z,9.10
2019-03-24T11:28:40.794Z,9.10
2019-03-24T11:33:43.974Z,9.30
2019-03-24T11:38:48.962Z,9.40
2019-03-24T11:43:52.236Z,9.30
2019-03-24T11:48:55.435Z,9.90
2019-03-24T11:53:58.832Z,10.00
2019-03-24T11:59:02.220Z,9.70
2019-03-24T12:04:05.512Z,9.60
2019-03-24T12:09:09.025Z,9.70
2019-03-24T12:14:12.123Z,9.50
2019-03-24T12:19:15.711Z,9.50
2019-03-24T12:24:18.821Z,9.50
2019-03-24T12:29:21.962Z,9.40
2019-03-24T12:34:25.070Z,9.50
2019-03-24T12:39:28.412Z,10.00
2019-03-24T12:44:31.558Z,10.10
2019-03-24T12:49:34.653Z,10.00
2019-03-24T12:54:37.807Z,10.50
2019-03-24T12:59:40.914Z,10.30
2019-03-24T13:04:44.516Z,10.50
2019-03-24T13:09:47.614Z,10.90
2019-03-24T13:14:50.731Z,10.50
2019-03-24T13:19:54.990Z,10.20
2019-03-24T13:24:58.163Z,10.40
2019-03-24T13:30:01.294Z,10.40
2019-03-24T13:35:06.486Z,10.10
2019-03-24T13:40:09.629Z,10.50
2019-03-24T13:45:13.138Z,10.30
2019-03-24T13:50:16.565Z,10.30
2019-03-24T13:55:20.961Z,10.50
2019-03-24T14:00:24.465Z,10.60
2019-03-24T14:05:27.583Z,10.60
2019-03-24T14:10:30.666Z,10.30
2019-03-24T14:15:34.791Z,10.50
2019-03-24T14:20:43.401Z,10.20
2019-03-24T14:25:43.174Z,10.30
2019-03-24T14:30:47.792Z,10.20
2019-03-24T14:35:50.913Z,10.10
2019-03-24T14:40:54.411Z,10.20
2019-03-24T14:45:57.600Z,10.30
2019-03-24T14:51:00.717Z,10.00
2019-03-24T14:56:03.829Z,10.10
2019-03-24T15:01:06.926Z,10.10
2019-03-24T15:06:09.993Z,10.50
2019-03-24T15:11:13.198Z,11.70
2019-03-24T15:16:16.306Z,12.90
2019-03-24T15:21:19.881Z,13.00
2019-03-24T15:26:22.985Z,13.20
2019-03-24T15:31:26.078Z,12.40
2019-03-24T15:36:29.482Z,12.00
2019-03-24T15:41:32.642Z,11.30
2019-03-24T15:46:35.883Z,12.10
2019-03-24T15:51:38.968Z,11.80
2019-03-24T15:56:42.161Z,12.70
2019-03-24T16:01:45.279Z,12.60
2019-03-24T16:06:48.959Z,11.60
2019-03-24T16:11:54.687Z,12.00
2019-03-24T16:16:57.796Z,11.70
2019-03-24T16:22:01.257Z,11.50
2019-03-24T16:27:04.441Z,11.20
2019-03-24T16:32:07.550Z,10.80
2019-03-24T16:37:10.654Z,10.30
2019-03-24T16:42:13.734Z,9.90
2019-03-24T16:47:16.908Z,10.20
2019-03-24T16:52:19.995Z,10.40
2019-03-24T16:57:23.279Z,9.80
2019-03-24T17:02:26.499Z,9.30
2019-03-24T17:07:29.642Z,8.80
2019-03-24T17:12:34.429Z,8.50
2019-03-24T17:17:38.340Z,8.30
2019-03-24T17:22:41.440Z,8.10
2019-03-24T17:27:44.602Z,8.10
2019-03-24T17:32:47.718Z,8.20
2019-03-24T17:37:51.997Z,8.10
2019-03-24T17:42:55.166Z,8.10
2019-03-24T17:47:58.449Z,8.00
2019-03-24T17:53:01.535Z,7.90
2019-03-24T17:58:05.334Z,7.90
2019-03-24T18:03:08.519Z,7.80
2019-03-24T18:08:12.017Z,7.80
2019-03-24T18:13:15.513Z,7.60
2019-03-24T18:18:18.680Z,7.60
2019-03-24T18:23:21.774Z,7.50
2019-03-24T18:28:25.032Z,7.40
2019-03-24T18:33:28.709Z,7.40
2019-03-24T18:38:31.800Z,7.40
2019-03-24T18:43:35.273Z,7.20
2019-03-24T18:48:38.385Z,7.20
2019-03-24T18:53:41.661Z,7.20
2019-03-24T18:58:44.777Z,7.20
2019-03-24T19:03:47.913Z,7.20
2019-03-24T19:08:51.082Z,7.10
2019-03-24T19:13:54.185Z,7.00
2019-03-24T19:18:57.303Z,6.90
2019-03-24T19:24:00.437Z,6.70
2019-03-24T19:29:03.626Z,6.60
2019-03-24T19:34:06.740Z,6.30
2019-03-24T19:39:09.853Z,6.20
2019-03-24T19:44:13.131Z,6.00
2019-03-24T19:49:16.332Z,5.90
2019-03-24T19:54:19.415Z,5.70
2019-03-24T19:59:24.103Z,5.60
2019-03-24T20:04:27.303Z,5.50
2019-03-24T20:09:30.918Z,5.30
2019-03-24T20:14:34.131Z,5.20
2019-03-24T20:19:37.232Z,5.20
2019-03-24T20:24:40.736Z,5.10
2019-03-24T20:29:43.858Z,5.10
2019-03-24T20:34:46.969Z,5.00
2019-03-24T20:39:50.196Z,5.00
2019-03-24T20:44:53.306Z,4.90
2019-03-24T20:49:56.480Z,4.80
2019-03-24T20:55:00.022Z,4.70
2019-03-24T21:00:04.712Z,4.70
2019-03-24T21:05:10.917Z,4.60
2019-03-24T21:10:14.495Z,4.60
2019-03-24T21:15:17.725Z,4.70
2019-03-24T21:20:20.864Z,4.70
2019-03-24T21:25:23.981Z,4.70
2019-03-24T21:30:35.221Z,4.70
2019-03-24T21:35:38.845Z,4.70
2019-03-24T21:40:41.991Z,4.80
2019-03-24T21:45:45.129Z,5.00
2019-03-24T21:50:48.263Z,5.10
2019-03-24T21:55:51.684Z,5.20
2019-03-24T22:00:55.644Z,5.30
2019-03-24T22:05:58.744Z,5.40
2019-03-24T22:11:01.958Z,5.40
2019-03-24T22:16:05.060Z,5.50
2019-03-24T22:21:08.134Z,5.60
2019-03-24T22:26:11.358Z,5.60
2019-03-24T22:31:14.513Z,5.70
2019-03-24T22:36:17.635Z,5.70
2019-03-24T22:41:21.856Z,5.70
2019-03-24T22:46:24.977Z,5.70
2019-03-24T22:51:28.870Z,5.70
2019-03-24T22:56:31.998Z,5.60
2019-03-24T23:01:35.269Z,5.60
2019-03-24T23:06:38.531Z,5.60
2019-03-24T23:11:42.007Z,5.60
2019-03-24T23:16:47.135Z,5.60
2019-03-24T23:21:50.257Z,5.60
2019-03-24T23:26:53.399Z,5.40
2019-03-24T23:31:56.534Z,5.20
2019-03-24T23:36:59.642Z,5.20
2019-03-24T23:42:02.783Z,5.20
2019-03-24T23:47:06.383Z,5.20
2019-03-24T23:52:09.824Z,5.10
2019-03-24T23:57:13.330Z,5.10
